Time;durP1;ratioP1;P1;durP2;ratioP2;P2;SDS_P1;SDS_P2;PMS_P1;PMS_P2;Temp;Humidity;BMP_temperature;BMP_pressure;BME280_temperature;BME280_humidity;BME280_pressure;Samples;Min_cycle;Max_cycle;Signal;HPM_P1;HPM_P2
2023/01/31 00:06:19;;;;;;;29.80;5.03;;;;;;;-0.59;90.72;100717.84;5508559;23;20036;-69
2023/01/31 00:26:14;;;;;;;27.67;4.00;;;;;;;-0.66;91.21;100754.22;5926537;23;20018;-68
2023/01/31 00:31:24;;;;;;;28.42;3.92;;;;;;;-0.70;90.62;100750.06;5781855;23;20024;-69
2023/01/31 01:15:29;;;;;;;24.83;3.22;;;;;;;-0.43;88.98;100816.19;5601511;23;20040;-69
2023/01/31 01:53:26;;;;;;;23.80;3.60;;;;;;;-0.33;88.04;100848.09;5838698;23;20263;-69
2023/01/31 01:56:02;;;;;;;37.72;4.80;;;;;;;-0.30;88.34;100855.84;4922727;29;20025;-70
2023/01/31 02:58:30;;;;;;;24.88;2.75;;;;;;;-0.68;91.52;100917.66;5519507;23;20115;-69
2023/01/31 03:18:22;;;;;;;24.70;3.08;;;;;;;-1.00;95.19;100908.84;5966877;23;20049;31
2023/01/31 04:47:56;;;;;;;27.67;3.20;;;;;;;-1.36;100.00;101006.38;5873717;23;20147;-68
2023/01/31 05:19:35;;;;;;;29.02;3.75;;;;;;;-1.23;100.00;101012.75;5762089;23;21013;-68
2023/01/31 05:24:43;;;;;;;22.23;3.47;;;;;;;-1.30;100.00;101003.44;5938415;23;20035;-68
2023/01/31 05:59:18;;;;;;;25.15;3.53;;;;;;;-0.87;100.00;101037.28;5892061;23;20023;-70
2023/01/31 06:56:11;;;;;;;23.35;4.57;;;;;;;-0.57;100.00;101069.94;6052019;23;21035;31
2023/01/31 07:04:22;;;;;;;19.83;3.88;;;;;;;-0.55;100.00;101072.47;6094125;23;20072;-72
2023/01/31 07:15:10;;;;;;;31.48;3.63;;;;;;;-0.63;100.00;101067.59;6119190;23;20005;-72
2023/01/31 07:55:37;;;;;;;26.70;3.45;;;;;;;-0.37;100.00;101060.09;6127758;23;20048;-70
2023/01/31 08:03:35;;;;;;;30.73;2.92;;;;;;;-0.29;100.00;101050.03;6098737;23;20187;-71
2023/01/31 08:06:06;;;;;;;32.78;4.32;;;;;;;-0.27;100.00;101051.63;6108100;23;20010;-73
2023/01/31 10:12:00;;;;;;;34.33;4.72;;;;;;;0.76;100.00;100930.53;6107735;23;20010;-71
2023/01/31 11:05:51;;;;;;;33.95;4.65;;;;;;;1.07;100.00;100851.22;6006649;23;20028;-69
2023/01/31 11:08:22;;;;;;;28.40;4.75;;;;;;;1.14;100.00;100832.25;6009699;23;20090;-68
2023/01/31 11:10:54;;;;;;;29.00;5.10;;;;;;;1.21;100.00;100833.53;6009199;23;20100;-67
2023/01/31 11:13:21;;;;;;;30.55;4.47;;;;;;;1.19;100.00;100839.88;6008836;23;20019;-69
2023/01/31 11:15:51;;;;;;;28.42;4.95;;;;;;;1.14;100.00;100834.88;6008470;23;20027;-69
2023/01/31 11:18:58;;;;;;;23.58;4.75;;;;;;;1.12;100.00;100823.56;6009032;23;20024;-69
2023/01/31 11:21:34;;;;;;;31.90;5.07;;;;;;;1.07;100.00;100816.88;5971839;24;20107;-69
2023/01/31 11:24:26;;;;;;;28.23;4.55;;;;;;;0.98;100.00;100815.66;5977854;24;20030;-68
2023/01/31 11:27:02;;;;;;;31.25;5.88;;;;;;;0.97;100.00;100806.88;5976013;24;20052;-69
2023/01/31 11:29:34;;;;;;;38.58;5.47;;;;;;;0.90;100.00;100783.59;5978617;24;20032;-69
2023/01/31 11:32:05;;;;;;;29.30;5.28;;;;;;;0.89;100.00;100795.97;5977422;24;20031;-68
2023/01/31 11:34:32;;;;;;;32.05;5.05;;;;;;;0.97;100.00;100785.75;5977978;24;20027;-70
2023/01/31 11:37:13;;;;;;;26.05;5.15;;;;;;;1.12;100.00;100775.16;5977684;23;20024;-68
2023/01/31 11:39:40;;;;;;;34.10;5.77;;;;;;;1.11;100.00;100773.47;5973872;24;20028;-69
2023/01/31 11:42:12;;;;;;;28.48;5.07;;;;;;;1.09;100.00;100773.56;5978227;24;20106;-67
2023/01/31 11:44:56;;;;;;;31.50;5.80;;;;;;;1.08;100.00;100766.56;5971329;24;20657;-67
2023/01/31 11:47:45;;;;;;;28.20;4.43;;;;;;;1.09;100.00;100759.47;5975842;24;20050;-68
2023/01/31 11:50:58;;;;;;;25.08;5.00;;;;;;;0.99;100.00;100753.97;5973533;24;20027;-68
2023/01/31 11:53:42;;;;;;;30.25;4.75;;;;;;;1.09;100.00;100744.50;6034232;23;20029;-67
2023/01/31 11:56:16;;;;;;;36.60;5.15;;;;;;;1.04;100.00;100737.81;6037556;23;20047;-68
2023/01/31 11:58:48;;;;;;;25.55;4.40;;;;;;;1.00;100.00;100734.53;6007116;23;20094;-69
2023/01/31 12:01:21;;;;;;;28.85;5.45;;;;;;;0.99;100.00;100723.09;6008090;23;20029;-68
2023/01/31 12:03:54;;;;;;;31.65;5.88;;;;;;;1.00;100.00;100716.88;6007585;23;20023;-68
2023/01/31 12:06:32;;;;;;;28.90;4.65;;;;;;;0.99;100.00;100707.25;6008203;23;20417;-69
2023/01/31 12:09:02;;;;;;;33.75;5.30;;;;;;;0.82;100.00;100691.66;6008082;23;20071;-69
2023/01/31 12:11:31;;;;;;;29.60;4.55;;;;;;;0.85;100.00;100691.44;6008446;23;20103;-69
2023/01/31 12:14:15;;;;;;;39.90;5.20;;;;;;;0.83;100.00;100674.00;6008285;23;20350;-69
2023/01/31 12:16:47;;;;;;;37.08;6.32;;;;;;;0.89;100.00;100669.19;6007678;23;20022;-70
2023/01/31 12:19:14;;;;;;;25.92;4.88;;;;;;;0.83;100.00;100663.44;6008607;23;20098;-69
2023/01/31 12:21:59;;;;;;;26.58;5.45;;;;;;;0.79;100.00;100657.50;6008005;23;20099;-71
2023/01/31 12:24:36;;;;;;;23.83;4.22;;;;;;;0.73;100.00;100652.63;6006057;23;20027;-69
2023/01/31 12:27:16;;;;;;;25.33;4.05;;;;;;;0.79;100.00;100660.16;6004732;23;20020;-69
2023/01/31 12:30:20;;;;;;;27.52;6.03;;;;;;;0.65;100.00;100654.91;6006623;23;20026;-69
2023/01/31 12:32:56;;;;;;;26.52;4.88;;;;;;;0.74;100.00;100652.50;6006146;23;20030;-69
2023/01/31 12:35:34;;;;;;;33.70;5.35;;;;;;;0.73;100.00;100648.19;6005715;23;20027;-68
2023/01/31 12:38:13;;;;;;;23.63;5.20;;;;;;;0.63;100.00;100638.31;6006706;23;20437;-69
2023/01/31 12:41:03;;;;;;;24.17;4.90;;;;;;;0.60;100.00;100635.84;6005850;23;20056;-69
2023/01/31 12:44:09;;;;;;;32.58;6.18;;;;;;;0.62;100.00;100624.25;6007173;23;20616;-70
2023/01/31 12:47:03;;;;;;;32.70;6.40;;;;;;;0.58;100.00;100617.50;6011142;23;20026;-70
2023/01/31 12:49:55;;;;;;;32.35;5.57;;;;;;;0.48;100.00;100608.47;6005527;23;20023;-70
2023/01/31 12:52:55;;;;;;;30.15;5.38;;;;;;;0.47;100.00;100615.53;5982562;23;20023;-69
2023/01/31 12:55:49;;;;;;;29.42;6.03;;;;;;;0.32;100.00;100599.81;6001473;23;20453;-70
2023/01/31 12:58:42;;;;;;;32.60;6.70;;;;;;;0.20;100.00;100590.91;6003572;23;20032;-69
2023/01/31 13:01:19;;;;;;;25.50;6.03;;;;;;;0.24;100.00;100589.75;6005755;23;20429;-69
2023/01/31 13:04:17;;;;;;;30.55;6.72;;;;;;;0.22;100.00;100591.63;6005269;23;20075;-69
2023/01/31 13:06:52;;;;;;;31.23;7.78;;;;;;;0.18;100.00;100575.16;6005504;23;20139;-69
2023/01/31 13:09:24;;;;;;;32.92;7.63;;;;;;;0.18;100.00;100571.66;6005148;23;20028;-69
2023/01/31 13:12:18;;;;;;;36.08;7.90;;;;;;;0.24;100.00;100584.47;5998870;23;20034;-68
2023/01/31 13:15:02;;;;;;;33.00;7.30;;;;;;;0.29;100.00;100588.53;6005700;23;20024;-68
2023/01/31 13:17:31;;;;;;;27.88;8.40;;;;;;;0.28;100.00;100575.41;6006552;23;20027;-68
2023/01/31 13:20:08;;;;;;;31.20;8.35;;;;;;;0.24;100.00;100571.28;6006044;23;20045;-68
2023/01/31 13:22:54;;;;;;;41.70;9.50;;;;;;;0.29;100.00;100571.81;6006158;23;20034;-68
2023/01/31 13:25:36;;;;;;;30.67;7.85;;;;;;;0.33;100.00;100573.34;6007123;23;20028;-68
2023/01/31 13:28:17;;;;;;;31.35;8.23;;;;;;;0.31;100.00;100554.13;6004002;23;20024;-68
2023/01/31 13:30:50;;;;;;;28.67;6.68;;;;;;;0.33;100.00;100554.00;6005429;23;20023;-68
2023/01/31 13:33:23;;;;;;;34.05;8.25;;;;;;;0.27;100.00;100557.91;6005476;23;20411;-68
2023/01/31 13:36:10;;;;;;;22.92;7.53;;;;;;;0.32;100.00;100557.59;6004736;23;20027;-68
2023/01/31 13:38:43;;;;;;;35.00;7.20;;;;;;;0.25;100.00;100547.44;6006129;23;20083;-67
2023/01/31 13:41:30;;;;;;;21.52;6.30;;;;;;;0.31;100.00;100548.84;6003458;23;20102;-67
2023/01/31 13:43:59;;;;;;;24.42;6.82;;;;;;;0.27;100.00;100550.84;5994048;23;20043;-70
2023/01/31 13:46:34;;;;;;;24.25;6.65;;;;;;;0.26;100.00;100543.00;6002474;23;20034;-70
2023/01/31 13:49:08;;;;;;;29.20;7.07;;;;;;;0.29;100.00;100548.09;6006929;23;20457;-69
2023/01/31 13:52:08;;;;;;;22.50;5.82;;;;;;;0.34;100.00;100550.44;6006119;23;20024;-69
2023/01/31 13:54:39;;;;;;;18.55;5.55;;;;;;;0.37;100.00;100543.19;6011220;23;20050;-69
2023/01/31 13:57:06;;;;;;;21.35;7.03;;;;;;;0.28;100.00;100549.03;6005296;23;20098;-69
2023/01/31 13:59:36;;;;;;;15.38;5.35;;;;;;;0.33;100.00;100536.41;6005100;23;20028;-69
2023/01/31 14:02:15;;;;;;;15.77;5.88;;;;;;;0.35;100.00;100531.03;6006137;23;20043;-69
2023/01/31 14:04:46;;;;;;;20.10;6.28;;;;;;;0.39;100.00;100543.06;6012598;23;20028;-69
2023/01/31 14:07:17;;;;;;;15.82;5.75;;;;;;;0.35;100.00;100531.03;6004559;23;20023;-69
2023/01/31 14:10:04;;;;;;;15.07;5.40;;;;;;;0.35;100.00;100537.13;6002964;23;20538;-69
2023/01/31 14:12:36;;;;;;;11.68;5.22;;;;;;;0.37;100.00;100539.69;6006355;23;20020;-69
2023/01/31 14:15:41;;;;;;;15.38;6.03;;;;;;;0.36;100.00;100533.53;6005837;23;20058;-69
2023/01/31 14:18:08;;;;;;;13.25;5.65;;;;;;;0.26;100.00;100530.69;6005696;23;20020;-69
2023/01/31 14:20:35;;;;;;;19.05;5.70;;;;;;;0.38;100.00;100536.09;6003695;23;20095;-69
2023/01/31 14:23:23;;;;;;;11.95;4.95;;;;;;;0.34;100.00;100516.97;5995769;23;20475;-69
2023/01/31 14:25:50;;;;;;;11.57;4.88;;;;;;;0.31;100.00;100511.91;6002476;23;20106;-69
2023/01/31 14:28:20;;;;;;;13.88;4.72;;;;;;;0.29;100.00;100514.66;5993364;23;20043;-69
2023/01/31 14:30:51;;;;;;;11.63;5.22;;;;;;;0.31;100.00;100511.91;5977936;23;20028;-71
2023/01/31 14:33:22;;;;;;;12.15;5.50;;;;;;;0.29;100.00;100513.78;6004459;23;20024;-70
2023/01/31 14:36:04;;;;;;;12.43;5.17;;;;;;;0.29;100.00;100505.88;6006650;23;20023;-70
2023/01/31 14:38:56;;;;;;;9.05;5.03;;;;;;;0.28;100.00;100509.47;6005222;23;20091;-70
2023/01/31 14:41:31;;;;;;;13.38;5.82;;;;;;;0.33;100.00;100493.31;6007749;23;20059;-69
2023/01/31 14:44:26;;;;;;;14.05;6.55;;;;;;;0.34;100.00;100498.50;6003812;23;20020;-69
2023/01/31 14:47:22;;;;;;;13.98;6.47;;;;;;;0.38;100.00;100492.09;6007518;23;20020;-69
2023/01/31 14:50:18;;;;;;;13.23;6.03;;;;;;;0.32;100.00;100489.84;6007585;23;20024;-69
2023/01/31 14:53:19;;;;;;;12.13;5.18;;;;;;;0.40;100.00;100490.19;6006627;23;20024;-70
2023/01/31 14:56:18;;;;;;;14.85;5.60;;;;;;;0.43;100.00;100495.25;6007185;23;20028;-69
2023/01/31 14:58:46;;;;;;;16.20;6.13;;;;;;;0.50;100.00;100488.66;6008296;23;20022;-68
2023/01/31 15:01:17;;;;;;;11.25;5.78;;;;;;;0.45;100.00;100488.09;6008653;23;20099;-68
2023/01/31 15:03:48;;;;;;;10.90;5.50;;;;;;;0.48;100.00;100490.53;6006633;23;20031;-70
2023/01/31 15:06:29;;;;;;;11.98;5.50;;;;;;;0.46;100.00;100475.75;6006509;23;20023;-70
2023/01/31 15:09:14;;;;;;;13.27;6.32;;;;;;;0.46;100.00;100470.47;6006808;23;20107;-70
2023/01/31 15:11:43;;;;;;;14.77;6.70;;;;;;;0.49;100.00;100478.19;6004354;23;20048;-70
2023/01/31 15:14:22;;;;;;;13.52;6.13;;;;;;;0.44;100.00;100461.81;6008784;23;20129;-70
2023/01/31 15:17:04;;;;;;;17.73;6.80;;;;;;;0.51;100.00;100468.38;6005861;23;20027;-70
2023/01/31 15:19:51;;;;;;;10.38;6.05;;;;;;;0.52;100.00;100454.22;6007652;23;20075;-70
2023/01/31 15:22:21;;;;;;;15.70;7.10;;;;;;;0.52;100.00;100477.97;6008872;23;20019;-70
2023/01/31 15:24:55;;;;;;;13.55;6.82;;;;;;;0.54;100.00;100473.47;6000552;23;20357;-70
2023/01/31 15:27:24;;;;;;;13.95;6.78;;;;;;;0.59;100.00;100467.88;6022609;23;20103;-70
2023/01/31 15:30:16;;;;;;;11.63;6.78;;;;;;;0.58;100.00;100464.38;6006173;23;20107;-70
2023/01/31 15:32:51;;;;;;;18.60;6.70;;;;;;;0.59;100.00;100455.50;6003984;23;20066;-70
2023/01/31 15:35:49;;;;;;;20.35;7.07;;;;;;;0.65;100.00;100456.91;6007156;23;20414;-70
2023/01/31 15:38:29;;;;;;;14.95;7.25;;;;;;;0.67;100.00;100463.75;6006729;23;20095;-70
2023/01/31 15:41:05;;;;;;;10.73;7.22;;;;;;;0.66;100.00;100459.44;6006540;23;20054;-70
2023/01/31 15:43:32;;;;;;;12.95;7.40;;;;;;;0.67;100.00;100457.63;6007404;23;20200;-70
2023/01/31 15:46:11;;;;;;;15.48;7.68;;;;;;;0.70;100.00;100465.34;6007909;23;20103;-70
2023/01/31 15:48:41;;;;;;;17.52;8.20;;;;;;;0.68;100.00;100467.25;6007372;23;20035;-70
2023/01/31 15:51:12;;;;;;;17.58;9.30;;;;;;;0.61;100.00;100458.06;6008023;23;20442;-70
2023/01/31 15:53:40;;;;;;;12.93;9.05;;;;;;;0.66;100.00;100455.94;6006010;23;20051;-70
2023/01/31 15:56:23;;;;;;;17.08;7.82;;;;;;;0.66;100.00;100448.03;6007782;23;20341;-70
2023/01/31 15:58:53;;;;;;;21.20;8.00;;;;;;;0.61;100.00;100440.41;6007966;23;20020;-69
2023/01/31 16:01:20;;;;;;;15.15;8.93;;;;;;;0.65;100.00;100438.41;6007804;23;20114;-69
2023/01/31 16:03:55;;;;;;;15.18;9.45;;;;;;;0.67;100.00;100447.06;6005951;23;20090;-70
2023/01/31 16:06:30;;;;;;;16.58;8.63;;;;;;;0.67;100.00;100452.34;6007652;23;20046;-69
2023/01/31 16:08:58;;;;;;;14.23;8.32;;;;;;;0.65;100.00;100449.81;6007595;23;20454;-70
2023/01/31 16:11:30;;;;;;;13.52;8.55;;;;;;;0.73;100.00;100444.03;6008248;23;20028;-70
2023/01/31 16:14:02;;;;;;;17.25;8.95;;;;;;;0.70;100.00;100431.03;6007232;23;20076;-69
2023/01/31 16:16:33;;;;;;;20.30;9.73;;;;;;;0.75;100.00;100445.63;6006432;23;20373;-69
2023/01/31 16:19:01;;;;;;;14.18;9.90;;;;;;;0.75;100.00;100461.47;6007454;23;20366;-69
2023/01/31 16:21:40;;;;;;;19.63;9.63;;;;;;;0.75;100.00;100461.47;6007452;23;20034;-70
2023/01/31 16:24:10;;;;;;;16.67;8.65;;;;;;;0.80;100.00;100449.72;5995154;23;20035;-70
2023/01/31 16:26:39;;;;;;;14.80;10.13;;;;;;;0.83;100.00;100447.72;6006172;23;20031;-70
2023/01/31 16:29:16;;;;;;;23.92;11.23;;;;;;;0.76;100.00;100452.56;6008232;23;20023;-70
2023/01/31 16:31:52;;;;;;;18.88;11.00;;;;;;;0.76;100.00;100465.78;6008193;23;20449;-71
2023/01/31 16:34:24;;;;;;;16.30;10.50;;;;;;;0.80;100.00;100463.78;6007796;23;20031;-70
2023/01/31 16:36:55;;;;;;;21.30;11.57;;;;;;;0.82;100.00;100464.53;6004281;23;20020;-70
2023/01/31 16:39:32;;;;;;;17.15;11.30;;;;;;;0.83;100.00;100466.22;6007604;23;20488;-71
2023/01/31 16:41:59;;;;;;;20.25;11.60;;;;;;;0.87;100.00;100465.06;6007906;23;20022;-70
2023/01/31 16:44:33;;;;;;;19.10;12.18;;;;;;;0.88;100.00;100477.28;6000053;23;20028;-70
2023/01/31 16:47:00;;;;;;;19.75;11.80;;;;;;;0.87;100.00;100464.22;6007203;23;20099;-70
2023/01/31 16:49:36;;;;;;;21.52;12.60;;;;;;;0.88;100.00;100461.44;6012351;23;20122;-71
2023/01/31 16:52:16;;;;;;;17.15;11.25;;;;;;;0.90;100.00;100477.22;6009618;23;20084;-71
2023/01/31 16:54:54;;;;;;;20.02;12.75;;;;;;;0.88;100.00;100456.16;6007810;23;20034;-71
2023/01/31 16:57:33;;;;;;;20.70;12.60;;;;;;;0.91;100.00;100436.63;6006144;23;20053;-71
2023/01/31 17:00:06;;;;;;;22.38;12.13;;;;;;;0.84;100.00;100443.28;5997940;23;20031;-71
2023/01/31 17:02:40;;;;;;;19.58;12.50;;;;;;;0.86;100.00;100426.41;6008574;23;20034;-70
2023/01/31 17:05:23;;;;;;;21.38;13.00;;;;;;;0.95;100.00;100416.97;6007395;23;20461;-71
2023/01/31 17:07:52;;;;;;;28.70;14.30;;;;;;;0.95;100.00;100424.91;6007015;23;20107;-71
2023/01/31 17:10:22;;;;;;;20.95;13.57;;;;;;;0.97;100.00;100421.22;6008226;23;20467;-70
2023/01/31 17:12:50;;;;;;;20.20;13.48;;;;;;;0.97;100.00;100426.50;6012307;23;20020;-70
2023/01/31 17:15:18;;;;;;;22.95;12.82;;;;;;;0.95;100.00;100430.19;6012472;23;20024;-70
2023/01/31 17:17:46;;;;;;;19.13;12.30;;;;;;;0.99;100.00;100431.69;6014106;23;20027;-70
2023/01/31 17:20:15;;;;;;;21.08;13.52;;;;;;;0.97;100.00;100430.94;6006344;23;20341;-70
2023/01/31 17:22:42;;;;;;;24.58;13.90;;;;;;;0.95;100.00;100423.13;6007056;23;20024;-70
2023/01/31 17:25:25;;;;;;;26.20;14.70;;;;;;;0.97;100.00;100423.00;6011430;23;20103;-67
2023/01/31 17:27:51;;;;;;;19.73;13.35;;;;;;;0.98;100.00;100425.53;6006800;23;20349;-70
2023/01/31 17:30:19;;;;;;;23.67;15.10;;;;;;;0.98;100.00;100420.25;6008889;23;20023;-69
2023/01/31 17:32:47;;;;;;;20.88;15.27;;;;;;;1.00;100.00;100415.72;6036555;23;20050;-69
2023/01/31 17:35:19;;;;;;;23.90;14.30;;;;;;;1.01;100.00;100398.06;6036205;23;20318;-69
2023/01/31 17:37:46;;;;;;;25.17;14.88;;;;;;;0.97;100.00;100400.09;6034476;23;20030;-68
2023/01/31 17:40:12;;;;;;;23.20;15.48;;;;;;;0.99;100.00;100385.00;6035391;23;20371;-70
2023/01/31 17:42:39;;;;;;;23.58;14.48;;;;;;;0.96;100.00;100381.72;6035014;23;20034;-70
2023/01/31 17:45:12;;;;;;;20.38;14.35;;;;;;;1.03;100.00;100375.06;6036165;23;20509;-69
2023/01/31 17:47:40;;;;;;;24.90;14.23;;;;;;;0.99;100.00;100374.41;6036009;23;20051;-69
2023/01/31 17:50:12;;;;;;;23.90;15.32;;;;;;;1.01;100.00;100377.78;6036172;23;20039;-70
2023/01/31 17:52:39;;;;;;;21.15;14.88;;;;;;;1.04;100.00;100381.19;6035460;23;20033;-69
2023/01/31 17:55:06;;;;;;;24.83;14.48;;;;;;;1.04;100.00;100376.72;6034348;23;20090;-69
2023/01/31 17:57:33;;;;;;;21.55;13.73;;;;;;;1.00;100.00;100368.19;6035057;23;20035;-69
2023/01/31 18:00:00;;;;;;;18.65;12.93;;;;;;;1.10;100.00;100330.56;6011046;23;20023;-69
2023/01/31 18:02:26;;;;;;;21.40;12.65;;;;;;;1.01;100.00;100319.66;6036058;23;20474;-69
2023/01/31 18:04:53;;;;;;;20.13;13.55;;;;;;;0.99;100.00;100323.41;6034274;23;20129;-69
2023/01/31 18:07:19;;;;;;;27.05;14.68;;;;;;;0.99;100.00;100332.16;6036174;23;20031;-68
2023/01/31 18:09:46;;;;;;;26.85;13.73;;;;;;;1.03;100.00;100339.88;6035332;23;20020;-69
2023/01/31 18:12:13;;;;;;;18.83;12.02;;;;;;;0.96;100.00;100329.72;6034946;23;20046;-70
2023/01/31 18:14:39;;;;;;;22.95;13.65;;;;;;;1.05;100.00;100333.50;6033561;23;20098;-70
2023/01/31 18:17:06;;;;;;;22.95;12.40;;;;;;;1.08;100.00;100346.50;6035005;23;20043;-70
2023/01/31 18:19:32;;;;;;;18.60;12.48;;;;;;;1.15;100.00;100342.47;6035526;23;20054;-70
2023/01/31 18:21:59;;;;;;;21.08;11.05;;;;;;;1.19;100.00;100337.81;6035113;23;20090;-70
2023/01/31 18:24:25;;;;;;;17.48;10.95;;;;;;;1.19;100.00;100335.16;6034316;23;20049;-70
2023/01/31 18:26:52;;;;;;;20.63;11.52;;;;;;;1.20;100.00;100335.06;6036516;23;20357;-70
2023/01/31 18:29:19;;;;;;;15.75;10.50;;;;;;;1.22;100.00;100343.72;6034023;23;20029;-71
2023/01/31 18:31:46;;;;;;;20.25;11.32;;;;;;;1.33;100.00;100350.88;6035170;23;20039;-70
2023/01/31 18:34:14;;;;;;;20.33;10.55;;;;;;;1.27;100.00;100337.28;6035415;23;20031;-70
2023/01/31 18:36:41;;;;;;;22.63;11.75;;;;;;;1.30;100.00;100329.09;6034968;23;20027;-70
2023/01/31 18:39:07;;;;;;;15.25;10.23;;;;;;;1.26;100.00;100328.47;6035474;23;20019;-70
2023/01/31 18:41:34;;;;;;;17.55;10.35;;;;;;;1.30;100.00;100329.97;6034940;23;20027;-70
2023/01/31 18:44:00;;;;;;;18.05;9.35;;;;;;;1.36;100.00;100323.38;6020861;23;20365;-72
2023/01/31 18:46:28;;;;;;;18.65;9.43;;;;;;;1.29;100.00;100320.34;6033786;23;20026;-70
2023/01/31 18:48:54;;;;;;;14.40;8.70;;;;;;;1.34;100.00;100314.75;6036067;23;20026;-71
2023/01/31 18:51:21;;;;;;;17.73;8.75;;;;;;;1.33;100.00;100323.59;6036245;23;20031;-70
2023/01/31 18:53:47;;;;;;;17.48;8.98;;;;;;;1.41;100.00;100310.69;6035837;23;20024;-71
2023/01/31 18:56:19;;;;;;;28.63;11.50;;;;;;;1.39;100.00;100310.78;6036657;23;20338;-71
2023/01/31 18:58:51;;;;;;;20.10;9.68;;;;;;;1.41;100.00;100322.13;6035863;23;20024;-70
2023/01/31 19:01:19;;;;;;;20.13;9.52;;;;;;;1.38;100.00;100319.69;6035081;23;20015;-70
2023/01/31 19:03:49;;;;;;;16.67;8.25;;;;;;;1.47;100.00;100303.16;6035391;23;20352;-68
2023/01/31 19:06:17;;;;;;;15.52;8.15;;;;;;;1.41;100.00;100316.81;6035575;23;20038;-69
2023/01/31 19:08:48;;;;;;;21.98;7.50;;;;;;;1.47;100.00;100332.25;6035145;23;20015;-69
2023/01/31 19:11:17;;;;;;;19.60;7.45;;;;;;;1.49;100.00;100337.41;6034784;23;20023;-68
2023/01/31 19:13:44;;;;;;;19.27;6.53;;;;;;;1.47;100.00;100319.03;6035266;23;20024;-68
2023/01/31 19:16:13;;;;;;;14.05;6.65;;;;;;;1.57;100.00;100321.81;6029507;23;20019;-67
2023/01/31 19:18:40;;;;;;;19.05;7.20;;;;;;;1.47;100.00;100332.25;6035215;23;20030;-69
2023/01/31 19:21:24;;;;;;;18.83;6.57;;;;;;;1.55;100.00;100322.91;6035774;23;20019;-68
2023/01/31 19:23:53;;;;;;;19.98;7.05;;;;;;;1.59;100.00;100319.09;6036515;23;20043;-69
2023/01/31 19:26:20;;;;;;;20.70;7.70;;;;;;;1.56;100.00;100300.81;6036944;23;20062;-68
2023/01/31 19:28:47;;;;;;;17.50;6.40;;;;;;;1.56;100.00;100293.72;6037253;23;20086;-69
2023/01/31 19:31:17;;;;;;;25.98;5.85;;;;;;;1.53;100.00;100283.34;6037352;23;20046;-68
2023/01/31 19:33:49;;;;;;;17.52;5.65;;;;;;;1.65;100.00;100351.22;6035509;23;20027;-69
2023/01/31 19:36:19;;;;;;;14.55;4.65;;;;;;;1.61;100.00;100372.69;6022835;23;20025;-69
2023/01/31 19:38:46;;;;;;;12.38;3.25;;;;;;;1.21;100.00;100415.19;6036670;23;20027;-64
2023/01/31 19:41:18;;;;;;;8.27;2.10;;;;;;;0.49;100.00;100397.19;6030601;23;20031;-64
2023/01/31 19:43:47;;;;;;;10.30;1.60;;;;;;;0.05;100.00;100405.44;6036256;23;20390;-63
2023/01/31 19:46:13;;;;;;;10.60;2.00;;;;;;;-0.04;100.00;100398.97;6036428;23;20201;-64
2023/01/31 19:48:40;;;;;;;10.60;1.83;;;;;;;-0.11;100.00;100376.59;6035865;23;20102;-64
2023/01/31 19:51:09;;;;;;;9.13;1.85;;;;;;;-0.16;100.00;100373.38;6037031;23;20344;-63
2023/01/31 19:53:37;;;;;;;10.07;1.80;;;;;;;-0.16;100.00;100369.91;6036800;23;20019;-64
2023/01/31 19:56:04;;;;;;;11.48;1.55;;;;;;;-0.19;100.00;100386.81;6037004;23;20102;-64
2023/01/31 19:58:31;;;;;;;12.10;2.03;;;;;;;-0.19;100.00;100390.28;6036558;23;20027;-63
2023/01/31 20:01:03;;;;;;;17.35;3.03;;;;;;;-0.22;100.00;100393.09;6036452;23;20091;-63
2023/01/31 20:03:30;;;;;;;17.92;2.10;;;;;;;-0.20;100.00;100398.28;6036256;23;20027;-63
2023/01/31 20:06:05;;;;;;;13.00;2.10;;;;;;;-0.21;100.00;100399.22;6034922;23;20314;-64
2023/01/31 20:08:31;;;;;;;10.25;2.08;;;;;;;-0.20;100.00;100400.91;6035722;23;20035;-64
2023/01/31 20:10:58;;;;;;;10.15;2.85;;;;;;;-0.20;100.00;100395.63;6036439;23;20027;-64
2023/01/31 20:13:24;;;;;;;9.48;2.10;;;;;;;-0.17;100.00;100395.44;6036388;23;20098;-64
2023/01/31 20:16:05;;;;;;;16.13;2.50;;;;;;;-0.19;100.00;100399.97;6036170;23;20334;-64
2023/01/31 20:18:34;;;;;;;12.85;2.53;;;;;;;-0.10;100.00;100399.38;6036638;23;20046;-63
2023/01/31 20:21:01;;;;;;;16.13;2.20;;;;;;;-0.07;100.00;100393.06;6037271;23;20041;-64
2023/01/31 20:23:28;;;;;;;15.82;3.33;;;;;;;-0.04;100.00;100393.69;6035746;23;20479;-64
2023/01/31 20:25:55;;;;;;;14.27;2.67;;;;;;;-0.01;100.00;100398.78;6035457;23;20096;-65
2023/01/31 20:28:23;;;;;;;27.95;3.45;;;;;;;-0.03;100.00;100411.22;6036168;23;20482;-64
2023/01/31 20:30:50;;;;;;;15.40;2.35;;;;;;;0.07;100.00;100421.16;6036820;23;20529;-63
2023/01/31 20:33:17;;;;;;;31.15;3.67;;;;;;;0.06;100.00;100412.41;6036342;23;20181;-64
2023/01/31 20:35:45;;;;;;;14.30;2.35;;;;;;;0.12;100.00;100411.16;6036500;23;20023;-65
2023/01/31 20:38:11;;;;;;;16.42;2.70;;;;;;;0.16;100.00;100425.84;6036314;23;20445;-64
2023/01/31 20:40:38;;;;;;;16.50;2.97;;;;;;;0.16;100.00;100425.84;6036385;23;20019;-65
2023/01/31 20:43:05;;;;;;;33.55;3.35;;;;;;;0.17;100.00;100432.81;6036893;23;20023;-64
2023/01/31 20:45:32;;;;;;;23.88;3.88;;;;;;;0.10;100.00;100440.28;6036626;23;20484;-65
2023/01/31 20:47:59;;;;;;;23.85;4.07;;;;;;;0.15;100.00;100429.41;6035268;23;20041;-65
2023/01/31 20:50:27;;;;;;;17.15;2.70;;;;;;;0.09;100.00;100437.72;6035869;23;20076;-65
2023/01/31 20:52:54;;;;;;;25.27;4.05;;;;;;;0.08;100.00;100441.31;6035834;23;20034;-65
2023/01/31 20:55:21;;;;;;;32.63;3.97;;;;;;;0.06;100.00;100446.69;6034130;23;20031;-65
2023/01/31 20:57:49;;;;;;;27.17;3.28;;;;;;;0.07;100.00;100444.91;6035592;23;20098;-65
2023/01/31 21:00:18;;;;;;;29.88;3.25;;;;;;;0.11;100.00;100449.88;6035465;23;20050;-64
2023/01/31 21:02:45;;;;;;;21.95;3.58;;;;;;;0.02;100.00;100439.94;6036002;23;20024;-64
2023/01/31 21:05:12;;;;;;;25.10;3.38;;;;;;;0.07;100.00;100453.66;6035213;23;20031;-65
2023/01/31 21:07:39;;;;;;;22.05;3.70;;;;;;;0.03;100.00;100453.00;6036426;23;20046;-63
2023/01/31 21:10:07;;;;;;;22.83;3.00;;;;;;;0.03;100.00;100454.81;6035626;23;20106;-64
2023/01/31 21:12:33;;;;;;;23.92;3.33;;;;;;;0.07;100.00;100463.38;6035915;23;20027;-65
2023/01/31 21:15:00;;;;;;;17.38;2.80;;;;;;;0.07;100.00;100458.09;6036217;23;20043;-71
2023/01/31 21:17:26;;;;;;;23.77;3.28;;;;;;;0.09;100.00;100461.47;6035271;23;20454;-71
2023/01/31 21:20:06;;;;;;;19.52;3.05;;;;;;;0.09;100.00;100456.19;6031648;23;20019;-70
2023/01/31 21:22:35;;;;;;;22.23;3.33;;;;;;;0.11;100.00;100476.25;6034540;23;20028;-71
2023/01/31 21:25:01;;;;;;;22.45;2.92;;;;;;;0.19;100.00;100475.75;6035538;23;20031;-71
2023/01/31 21:27:28;;;;;;;27.67;4.25;;;;;;;0.29;100.00;100466.28;6034944;23;20524;-70
2023/01/31 21:29:55;;;;;;;26.20;3.75;;;;;;;0.33;100.00;100473.09;6035866;23;20082;-71
2023/01/31 21:32:21;;;;;;;23.75;3.35;;;;;;;0.32;100.00;100479.28;6035418;23;20034;-70
2023/01/31 21:34:48;;;;;;;27.52;3.80;;;;;;;0.37;100.00;100479.84;6035269;23;20035;-72
2023/01/31 21:37:14;;;;;;;28.35;4.05;;;;;;;0.37;100.00;100482.47;6034615;23;20038;-72
2023/01/31 21:39:41;;;;;;;25.58;3.38;;;;;;;0.42;100.00;100496.22;6035891;23;20026;-67
2023/01/31 21:42:15;;;;;;;21.95;3.63;;;;;;;0.41;100.00;100498.97;6036722;23;20034;-72
2023/01/31 21:44:42;;;;;;;22.38;3.58;;;;;;;0.42;100.00;100464.53;6034395;23;20015;-69
2023/01/31 21:47:09;;;;;;;30.27;3.63;;;;;;;0.42;100.00;100475.09;6035525;23;20019;-70
2023/01/31 21:49:36;;;;;;;24.70;3.20;;;;;;;0.41;100.00;100509.53;6035786;23;20025;-71
2023/01/31 21:52:03;;;;;;;13.27;2.20;;;;;;;0.11;100.00;100510.53;6022216;23;20026;-69
2023/01/31 21:54:30;;;;;;;8.77;1.85;;;;;;;-0.26;100.00;100498.84;6032621;23;20027;-70
2023/01/31 21:56:57;;;;;;;7.47;1.63;;;;;;;-0.46;100.00;100518.53;6034892;23;20023;-69
2023/01/31 21:59:24;;;;;;;9.05;1.77;;;;;;;-0.53;100.00;100497.00;6034234;23;20346;-70